sensor_id;sensor_type;location;lat;lon;timestamp;pressure;altitude;pressure_sealevel;temperature;humidity
59417;BME280;45222;52.458;20.914;2023-03-18T00:02:58;101277.95;;;2.62;57.57
59417;BME280;45222;52.458;20.914;2023-03-18T00:06:43;101276.02;;;2.62;57.70
59417;BME280;45222;52.458;20.914;2023-03-18T00:10:28;101275.14;;;2.61;57.81
59417;BME280;45222;52.458;20.914;2023-03-18T00:14:14;101274.79;;;2.61;57.42
59417;BME280;45222;52.458;20.914;2023-03-18T00:17:59;101271.45;;;2.59;57.47
59417;BME280;45222;52.458;20.914;2023-03-18T00:21:44;101271.98;;;2.56;57.58
59417;BME280;45222;52.458;20.914;2023-03-18T00:25:29;101269.70;;;2.54;57.43
59417;BME280;45222;52.458;20.914;2023-03-18T00:29:15;101266.38;;;2.47;57.26
59417;BME280;45222;52.458;20.914;2023-03-18T00:33:00;101261.11;;;2.44;57.01
59417;BME280;45222;52.458;20.914;2023-03-18T00:36:45;101254.44;;;2.42;56.91
59417;BME280;45222;52.458;20.914;2023-03-18T00:40:34;101254.97;;;2.41;57.12
59417;BME280;45222;52.458;20.914;2023-03-18T00:44:36;101247.77;;;2.40;56.93
59417;BME280;45222;52.458;20.914;2023-03-18T00:48:23;101242.86;;;2.40;56.91
59417;BME280;45222;52.458;20.914;2023-03-18T00:52:09;101234.78;;;2.36;56.72
59417;BME280;45222;52.458;20.914;2023-03-18T00:55:54;101233.20;;;2.32;56.68
59417;BME280;45222;52.458;20.914;2023-03-18T00:59:39;101229.87;;;2.30;56.76
59417;BME280;45222;52.458;20.914;2023-03-18T01:03:24;101229.86;;;2.25;56.72
59417;BME280;45222;52.458;20.914;2023-03-18T01:07:09;101226.53;;;2.24;56.75
59417;BME280;45222;52.458;20.914;2023-03-18T01:10:56;101218.64;;;2.21;56.71
59417;BME280;45222;52.458;20.914;2023-03-18T01:14:41;101218.64;;;2.20;56.76
59417;BME280;45222;52.458;20.914;2023-03-18T01:18:27;101211.09;;;2.16;56.80
59417;BME280;45222;52.458;20.914;2023-03-18T01:22:13;101207.95;;;2.14;56.65
59417;BME280;45222;52.458;20.914;2023-03-18T01:25:58;101203.73;;;2.16;56.48
59417;BME280;45222;52.458;20.914;2023-03-18T01:29:43;101206.36;;;2.15;56.57
59417;BME280;45222;52.458;20.914;2023-03-18T01:33:29;101204.78;;;2.13;56.57
59417;BME280;45222;52.458;20.914;2023-03-18T01:37:15;101203.38;;;2.10;56.58
59417;BME280;45222;52.458;20.914;2023-03-18T01:41:00;101198.98;;;2.11;56.58
59417;BME280;45222;52.458;20.914;2023-03-18T01:44:46;101196.71;;;2.10;56.47
59417;BME280;45222;52.458;20.914;2023-03-18T01:48:36;101202.50;;;2.09;56.51
59417;BME280;45222;52.458;20.914;2023-03-18T01:52:26;101202.14;;;2.04;56.66
59417;BME280;45222;52.458;20.914;2023-03-18T01:56:14;101202.52;;;2.02;56.48
59417;BME280;45222;52.458;20.914;2023-03-18T02:00:02;101200.39;;;2.01;56.46
59417;BME280;45222;52.458;20.914;2023-03-18T02:03:49;101198.28;;;1.99;56.51
59417;BME280;45222;52.458;20.914;2023-03-18T02:07:35;101196.88;;;1.93;56.71
59417;BME280;45222;52.458;20.914;2023-03-18T02:11:21;101202.85;;;1.91;56.61
59417;BME280;45222;52.458;20.914;2023-03-18T02:15:13;101204.08;;;1.89;56.48
59417;BME280;45222;52.458;20.914;2023-03-18T02:19:03;101201.62;;;1.86;56.44
59417;BME280;45222;52.458;20.914;2023-03-18T02:22:54;101198.27;;;1.83;56.43
59417;BME280;45222;52.458;20.914;2023-03-18T02:26:49;101191.61;;;1.80;56.46
59417;BME280;45222;52.458;20.914;2023-03-18T02:30:38;101190.55;;;1.78;56.42
59417;BME280;45222;52.458;20.914;2023-03-18T02:34:24;101189.14;;;1.74;56.57
59417;BME280;45222;52.458;20.914;2023-03-18T02:38:10;101190.02;;;1.69;56.79
59417;BME280;45222;52.458;20.914;2023-03-18T02:41:55;101188.26;;;1.64;56.92
59417;BME280;45222;52.458;20.914;2023-03-18T02:45:49;101191.41;;;1.62;56.99
59417;BME280;45222;52.458;20.914;2023-03-18T02:49:38;101189.30;;;1.58;57.14
59417;BME280;45222;52.458;20.914;2023-03-18T02:53:23;101187.38;;;1.57;56.98
59417;BME280;45222;52.458;20.914;2023-03-18T02:57:09;101182.46;;;1.52;57.25
59417;BME280;45222;52.458;20.914;2023-03-18T03:00:55;101181.94;;;1.49;57.12
59417;BME280;45222;52.458;20.914;2023-03-18T03:04:40;101179.99;;;1.45;57.14
59417;BME280;45222;52.458;20.914;2023-03-18T03:08:26;101177.69;;;1.40;57.46
59417;BME280;45222;52.458;20.914;2023-03-18T03:12:13;101177.36;;;1.38;57.51
59417;BME280;45222;52.458;20.914;2023-03-18T03:15:58;101169.80;;;1.36;57.60
59417;BME280;45222;52.458;20.914;2023-03-18T03:19:43;101169.96;;;1.30;57.73
59417;BME280;45222;52.458;20.914;2023-03-18T03:23:28;101166.98;;;1.26;57.82
59417;BME280;45222;52.458;20.914;2023-03-18T03:27:13;101169.95;;;1.24;57.92
59417;BME280;45222;52.458;20.914;2023-03-18T03:30:58;101167.14;;;1.20;57.91
59417;BME280;45222;52.458;20.914;2023-03-18T03:34:43;101174.48;;;1.17;57.98
59417;BME280;45222;52.458;20.914;2023-03-18T03:38:28;101174.99;;;1.15;58.09
59417;BME280;45222;52.458;20.914;2023-03-18T03:42:13;101169.90;;;1.09;58.25
59417;BME280;45222;52.458;20.914;2023-03-18T03:45:59;101176.55;;;1.03;58.49
59417;BME280;45222;52.458;20.914;2023-03-18T03:49:44;101184.74;;;0.97;58.52
59417;BME280;45222;52.458;20.914;2023-03-18T03:53:29;101182.98;;;0.93;58.67
59417;BME280;45222;52.458;20.914;2023-03-18T03:57:14;101187.16;;;0.89;58.79
59417;BME280;45222;52.458;20.914;2023-03-18T04:00:59;101186.77;;;0.82;58.87
59417;BME280;45222;52.458;20.914;2023-03-18T04:04:44;101182.56;;;0.77;59.16
59417;BME280;45222;52.458;20.914;2023-03-18T04:08:29;101179.19;;;0.69;59.28
59417;BME280;45222;52.458;20.914;2023-03-18T04:12:15;101177.05;;;0.62;59.63
59417;BME280;45222;52.458;20.914;2023-03-18T04:16:01;101185.59;;;0.54;60.01
59417;BME280;45222;52.458;20.914;2023-03-18T04:19:46;101186.08;;;0.50;59.98
59417;BME280;45222;52.458;20.914;2023-03-18T04:23:31;101190.60;;;0.46;60.12
59417;BME280;45222;52.458;20.914;2023-03-18T04:27:17;101190.90;;;0.38;60.67
59417;BME280;45222;52.458;20.914;2023-03-18T04:31:02;101188.89;;;0.25;60.98
59417;BME280;45222;52.458;20.914;2023-03-18T04:34:47;101196.90;;;0.19;60.91
59417;BME280;45222;52.458;20.914;2023-03-18T04:38:32;101191.09;;;0.14;61.18
59417;BME280;45222;52.458;20.914;2023-03-18T04:42:17;101188.23;;;0.06;61.71
59417;BME280;45222;52.458;20.914;2023-03-18T04:46:02;101185.05;;;0.03;61.45
59417;BME280;45222;52.458;20.914;2023-03-18T04:49:47;101190.42;;;-0.03;61.58
59417;BME280;45222;52.458;20.914;2023-03-18T04:53:33;101187.77;;;-0.07;61.63
59417;BME280;45222;52.458;20.914;2023-03-18T04:57:18;101190.39;;;-0.08;61.52
59417;BME280;45222;52.458;20.914;2023-03-18T05:01:03;101190.05;;;-0.07;61.81
59417;BME280;45222;52.458;20.914;2023-03-18T05:04:48;101190.90;;;-0.10;61.88
59417;BME280;45222;52.458;20.914;2023-03-18T05:08:33;101190.02;;;-0.11;61.72
59417;BME280;45222;52.458;20.914;2023-03-18T05:12:18;101192.48;;;-0.07;61.41
59417;BME280;45222;52.458;20.914;2023-03-18T05:16:04;101196.20;;;-0.03;61.41
59417;BME280;45222;52.458;20.914;2023-03-18T05:19:50;101196.95;;;0.03;61.59
59417;BME280;45222;52.458;20.914;2023-03-18T05:23:35;101194.52;;;0.05;61.63
59417;BME280;45222;52.458;20.914;2023-03-18T05:27:20;101194.57;;;0.10;61.41
59417;BME280;45222;52.458;20.914;2023-03-18T05:31:06;101192.53;;;0.21;60.97
59417;BME280;45222;52.458;20.914;2023-03-18T05:34:51;101190.69;;;0.32;60.67
59417;BME280;45222;52.458;20.914;2023-03-18T05:38:36;101188.35;;;0.48;60.45
59417;BME280;45222;52.458;20.914;2023-03-18T05:42:21;101189.13;;;0.63;60.18
59417;BME280;45222;52.458;20.914;2023-03-18T05:46:06;101192.02;;;0.77;60.12
59417;BME280;45222;52.458;20.914;2023-03-18T05:49:51;101185.27;;;0.97;59.39
59417;BME280;45222;52.458;20.914;2023-03-18T05:53:36;101179.91;;;1.15;59.21
59417;BME280;45222;52.458;20.914;2023-03-18T05:57:22;101181.20;;;1.36;58.96
59417;BME280;45222;52.458;20.914;2023-03-18T06:01:07;101186.84;;;1.56;58.70
59417;BME280;45222;52.458;20.914;2023-03-18T06:04:52;101181.61;;;1.80;57.93
59417;BME280;45222;52.458;20.914;2023-03-18T06:08:37;101178.99;;;2.03;57.84
59417;BME280;45222;52.458;20.914;2023-03-18T06:12:22;101176.52;;;2.25;57.67
59417;BME280;45222;52.458;20.914;2023-03-18T06:16:10;101174.36;;;2.48;57.10
59417;BME280;45222;52.458;20.914;2023-03-18T06:19:56;101166.92;;;2.73;56.68
59417;BME280;45222;52.458;20.914;2023-03-18T06:23:42;101163.15;;;2.95;56.56
59417;BME280;45222;52.458;20.914;2023-03-18T06:27:28;101162.16;;;3.19;56.07
59417;BME280;45222;52.458;20.914;2023-03-18T06:31:15;101163.63;;;3.40;54.70
59417;BME280;45222;52.458;20.914;2023-03-18T06:35:01;101161.20;;;3.61;54.20
59417;BME280;45222;52.458;20.914;2023-03-18T06:38:46;101158.41;;;3.81;53.54
59417;BME280;45222;52.458;20.914;2023-03-18T06:42:31;101157.03;;;4.00;52.91
59417;BME280;45222;52.458;20.914;2023-03-18T06:46:16;101157.72;;;4.19;52.82
59417;BME280;45222;52.458;20.914;2023-03-18T06:50:02;101151.92;;;4.38;51.57
59417;BME280;45222;52.458;20.914;2023-03-18T06:53:47;101152.30;;;4.52;50.97
59417;BME280;45222;52.458;20.914;2023-03-18T06:57:32;101156.54;;;4.67;50.31
59417;BME280;45222;52.458;20.914;2023-03-18T07:01:17;101159.52;;;4.83;50.65
59417;BME280;45222;52.458;20.914;2023-03-18T07:05:03;101155.77;;;5.02;50.86
59417;BME280;45222;52.458;20.914;2023-03-18T07:08:48;101161.88;;;5.20;50.41
59417;BME280;45222;52.458;20.914;2023-03-18T07:12:33;101165.00;;;5.36;50.56
59417;BME280;45222;52.458;20.914;2023-03-18T07:16:18;101163.02;;;5.52;48.90
59417;BME280;45222;52.458;20.914;2023-03-18T07:20:04;101166.45;;;5.59;48.08
59417;BME280;45222;52.458;20.914;2023-03-18T07:23:50;101166.13;;;5.68;48.04
59417;BME280;45222;52.458;20.914;2023-03-18T07:27:38;101169.30;;;5.79;47.29
59417;BME280;45222;52.458;20.914;2023-03-18T07:31:24;101173.02;;;5.90;47.31
59417;BME280;45222;52.458;20.914;2023-03-18T07:35:09;101175.84;;;6.01;47.32
59417;BME280;45222;52.458;20.914;2023-03-18T07:38:57;101177.25;;;6.13;46.54
59417;BME280;45222;52.458;20.914;2023-03-18T07:42:43;101175.27;;;6.25;46.78
59417;BME280;45222;52.458;20.914;2023-03-18T07:46:28;101175.58;;;6.38;46.23
59417;BME280;45222;52.458;20.914;2023-03-18T07:50:14;101166.84;;;6.53;46.60
59417;BME280;45222;52.458;20.914;2023-03-18T07:53:59;101163.36;;;6.68;46.48
59417;BME280;45222;52.458;20.914;2023-03-18T07:57:44;101166.52;;;6.78;46.02
59417;BME280;45222;52.458;20.914;2023-03-18T08:01:29;101157.33;;;6.87;45.61
59417;BME280;45222;52.458;20.914;2023-03-18T08:05:14;101159.09;;;6.96;45.29
59417;BME280;45222;52.458;20.914;2023-03-18T08:08:59;101155.13;;;7.07;44.97
59417;BME280;45222;52.458;20.914;2023-03-18T08:12:44;101146.27;;;7.16;44.49
59417;BME280;45222;52.458;20.914;2023-03-18T08:16:30;101143.33;;;7.22;44.35
59417;BME280;45222;52.458;20.914;2023-03-18T08:20:15;101136.54;;;7.32;45.08
59417;BME280;45222;52.458;20.914;2023-03-18T08:24:00;101136.52;;;7.49;44.83
59417;BME280;45222;52.458;20.914;2023-03-18T08:27:45;101130.38;;;7.61;44.88
59417;BME280;45222;52.458;20.914;2023-03-18T08:31:30;101127.52;;;7.78;44.40
59417;BME280;45222;52.458;20.914;2023-03-18T08:35:15;101125.95;;;7.90;43.85
59417;BME280;45222;52.458;20.914;2023-03-18T08:39:01;101121.81;;;8.00;43.33
59417;BME280;45222;52.458;20.914;2023-03-18T08:42:46;101118.27;;;8.14;43.09
59417;BME280;45222;52.458;20.914;2023-03-18T08:46:31;101108.34;;;8.27;42.29
59417;BME280;45222;52.458;20.914;2023-03-18T08:50:16;101113.88;;;8.39;42.29
59417;BME280;45222;52.458;20.914;2023-03-18T08:54:02;101114.21;;;8.53;42.53
59417;BME280;45222;52.458;20.914;2023-03-18T08:57:47;101109.70;;;8.69;41.66
59417;BME280;45222;52.458;20.914;2023-03-18T09:01:33;101104.99;;;8.85;41.04
59417;BME280;45222;52.458;20.914;2023-03-18T09:05:18;101103.27;;;8.95;40.68
59417;BME280;45222;52.458;20.914;2023-03-18T09:09:04;101100.58;;;9.02;41.07
59417;BME280;45222;52.458;20.914;2023-03-18T09:12:49;101102.29;;;9.16;41.14
59417;BME280;45222;52.458;20.914;2023-03-18T09:16:34;101100.21;;;9.31;40.66
59417;BME280;45222;52.458;20.914;2023-03-18T09:20:19;101102.62;;;9.45;40.53
59417;BME280;45222;52.458;20.914;2023-03-18T09:24:05;101099.77;;;9.56;39.58
59417;BME280;45222;52.458;20.914;2023-03-18T09:27:50;101100.50;;;9.61;39.83
59417;BME280;45222;52.458;20.914;2023-03-18T09:31:35;101098.41;;;9.70;39.49
59417;BME280;45222;52.458;20.914;2023-03-18T09:35:21;101095.92;;;9.81;39.14
59417;BME280;45222;52.458;20.914;2023-03-18T09:39:06;101093.12;;;9.91;39.16
59417;BME280;45222;52.458;20.914;2023-03-18T09:43:00;101091.13;;;10.07;38.86
59417;BME280;45222;52.458;20.914;2023-03-18T09:47:01;101081.10;;;10.25;38.57
59417;BME280;45222;52.458;20.914;2023-03-18T09:50:56;101079.12;;;10.41;38.40
59417;BME280;45222;52.458;20.914;2023-03-18T09:54:54;101070.95;;;10.55;38.13
59417;BME280;45222;52.458;20.914;2023-03-18T09:58:46;101071.39;;;10.68;37.38
59417;BME280;45222;52.458;20.914;2023-03-18T10:02:36;101071.21;;;10.77;37.44
59417;BME280;45222;52.458;20.914;2023-03-18T10:06:25;101068.54;;;10.87;37.88
59417;BME280;45222;52.458;20.914;2023-03-18T10:10:18;101070.23;;;10.93;37.05
59417;BME280;45222;52.458;20.914;2023-03-18T10:14:18;101064.12;;;11.05;37.19
59417;BME280;45222;52.458;20.914;2023-03-18T10:18:10;101056.72;;;11.16;36.53
59417;BME280;45222;52.458;20.914;2023-03-18T10:22:10;101052.53;;;11.32;37.14
59417;BME280;45222;52.458;20.914;2023-03-18T10:26:04;101052.56;;;11.39;36.90
59417;BME280;45222;52.458;20.914;2023-03-18T10:30:00;101050.94;;;11.40;36.10
59417;BME280;45222;52.458;20.914;2023-03-18T10:33:53;101049.52;;;11.31;35.26
59417;BME280;45222;52.458;20.914;2023-03-18T10:37:47;101045.24;;;11.27;34.75
59417;BME280;45222;52.458;20.914;2023-03-18T10:41:36;101044.38;;;11.26;35.84
59417;BME280;45222;52.458;20.914;2023-03-18T10:45:24;101045.86;;;11.38;35.73
59417;BME280;45222;52.458;20.914;2023-03-18T10:49:15;101045.80;;;11.48;35.44
59417;BME280;45222;52.458;20.914;2023-03-18T10:53:10;101031.94;;;11.56;35.01
59417;BME280;45222;52.458;20.914;2023-03-18T10:56:59;101037.64;;;11.68;35.57
59417;BME280;45222;52.458;20.914;2023-03-18T11:00:44;101039.37;;;11.91;34.98
59417;BME280;45222;52.458;20.914;2023-03-18T11:04:32;101028.93;;;12.10;35.47
59417;BME280;45222;52.458;20.914;2023-03-18T11:08:31;101023.93;;;12.31;34.86
59417;BME280;45222;52.458;20.914;2023-03-18T11:12:23;101010.27;;;12.49;34.74
59417;BME280;45222;52.458;20.914;2023-03-18T11:16:22;101010.83;;;12.64;34.42
59417;BME280;45222;52.458;20.914;2023-03-18T11:20:21;101011.50;;;12.76;34.14
59417;BME280;45222;52.458;20.914;2023-03-18T11:24:24;101006.17;;;12.87;34.39
59417;BME280;45222;52.458;20.914;2023-03-18T11:28:21;101004.05;;;12.97;33.48
59417;BME280;45222;52.458;20.914;2023-03-18T11:32:23;101002.03;;;13.02;33.88
59417;BME280;45222;52.458;20.914;2023-03-18T11:36:15;100990.88;;;13.08;33.43
59417;BME280;45222;52.458;20.914;2023-03-18T11:40:18;100989.91;;;13.09;33.30
59417;BME280;45222;52.458;20.914;2023-03-18T11:44:05;100987.00;;;13.14;33.09
59417;BME280;45222;52.458;20.914;2023-03-18T11:47:51;100982.46;;;13.30;33.66
59417;BME280;45222;52.458;20.914;2023-03-18T11:51:44;100976.68;;;13.53;34.00
59417;BME280;45222;52.458;20.914;2023-03-18T11:55:37;100968.16;;;13.69;32.92
59417;BME280;45222;52.458;20.914;2023-03-18T11:59:34;100969.73;;;13.74;32.52
59417;BME280;45222;52.458;20.914;2023-03-18T12:07:50;100966.44;;;13.92;32.91
59417;BME280;45222;52.458;20.914;2023-03-18T12:12:03;100964.23;;;14.13;32.77
59417;BME280;45222;52.458;20.914;2023-03-18T12:16:01;100958.46;;;14.28;32.71
59417;BME280;45222;52.458;20.914;2023-03-18T12:24:15;100946.66;;;14.41;31.79
59417;BME280;45222;52.458;20.914;2023-03-18T12:28:13;100944.21;;;14.40;31.27
59417;BME280;45222;52.458;20.914;2023-03-18T12:32:12;100943.78;;;14.44;31.91
59417;BME280;45222;52.458;20.914;2023-03-18T12:36:14;100944.10;;;14.61;32.08
59417;BME280;45222;52.458;20.914;2023-03-18T12:40:29;100940.98;;;14.69;31.52
59417;BME280;45222;52.458;20.914;2023-03-18T12:44:27;100938.30;;;14.59;31.18
59417;BME280;45222;52.458;20.914;2023-03-18T12:48:20;100936.95;;;14.55;31.40
59417;BME280;45222;52.458;20.914;2023-03-18T12:52:08;100933.42;;;14.50;31.52
59417;BME280;45222;52.458;20.914;2023-03-18T12:55:58;100933.84;;;14.46;31.41
59417;BME280;45222;52.458;20.914;2023-03-18T12:59:47;100933.59;;;14.51;31.55
59417;BME280;45222;52.458;20.914;2023-03-18T13:03:37;100929.83;;;14.60;31.41
59417;BME280;45222;52.458;20.914;2023-03-18T13:07:29;100925.45;;;14.71;31.24
59417;BME280;45222;52.458;20.914;2023-03-18T13:11:46;100921.33;;;14.78;30.66
59417;BME280;45222;52.458;20.914;2023-03-18T13:15:34;100919.09;;;14.73;31.01
59417;BME280;45222;52.458;20.914;2023-03-18T13:19:23;100920.67;;;14.67;31.41
59417;BME280;45222;52.458;20.914;2023-03-18T13:23:18;100920.41;;;14.65;31.37
59417;BME280;45222;52.458;20.914;2023-03-18T13:27:20;100919.52;;;14.85;31.64
59417;BME280;45222;52.458;20.914;2023-03-18T13:31:16;100909.58;;;15.08;31.78
59417;BME280;45222;52.458;20.914;2023-03-18T13:35:26;100911.65;;;15.28;30.78
59417;BME280;45222;52.458;20.914;2023-03-18T13:39:20;100901.14;;;15.38;30.99
59417;BME280;45222;52.458;20.914;2023-03-18T13:43:12;100897.95;;;15.32;30.76
59417;BME280;45222;52.458;20.914;2023-03-18T13:47:02;100891.77;;;15.18;30.87
59417;BME280;45222;52.458;20.914;2023-03-18T13:50:51;100893.34;;;15.22;31.73
59417;BME280;45222;52.458;20.914;2023-03-18T13:54:38;100886.55;;;15.28;31.03
59417;BME280;45222;52.458;20.914;2023-03-18T13:58:27;100888.45;;;15.20;30.89
59417;BME280;45222;52.458;20.914;2023-03-18T14:02:42;100878.02;;;15.15;31.03
59417;BME280;45222;52.458;20.914;2023-03-18T14:07:14;100882.20;;;14.89;30.69
59417;BME280;45222;52.458;20.914;2023-03-18T14:11:36;100873.61;;;14.60;30.87
59417;BME280;45222;52.458;20.914;2023-03-18T14:15:40;100871.98;;;14.48;31.09
59417;BME280;45222;52.458;20.914;2023-03-18T14:19:27;100866.77;;;14.30;31.11
59417;BME280;45222;52.458;20.914;2023-03-18T14:23:27;100858.84;;;14.15;31.17
59417;BME280;45222;52.458;20.914;2023-03-18T14:27:17;100856.79;;;14.00;31.65
59417;BME280;45222;52.458;20.914;2023-03-18T14:31:20;100858.08;;;13.79;31.54
59417;BME280;45222;52.458;20.914;2023-03-18T14:35:24;100857.44;;;13.51;31.82
59417;BME280;45222;52.458;20.914;2023-03-18T14:39:14;100855.55;;;13.35;31.82
59417;BME280;45222;52.458;20.914;2023-03-18T14:43:05;100857.45;;;13.22;31.89
59417;BME280;45222;52.458;20.914;2023-03-18T14:46:57;100857.59;;;13.09;32.65
59417;BME280;45222;52.458;20.914;2023-03-18T14:50:46;100857.44;;;12.98;32.93
59417;BME280;45222;52.458;20.914;2023-03-18T14:54:40;100861.08;;;12.86;33.08
59417;BME280;45222;52.458;20.914;2023-03-18T14:58:26;100857.25;;;12.70;33.34
59417;BME280;45222;52.458;20.914;2023-03-18T15:02:21;100852.03;;;12.52;33.65
59417;BME280;45222;52.458;20.914;2023-03-18T15:06:11;100839.48;;;12.28;33.53
59417;BME280;45222;52.458;20.914;2023-03-18T15:10:05;100842.16;;;12.05;34.01
59417;BME280;45222;52.458;20.914;2023-03-18T15:13:53;100845.23;;;11.84;34.46
59417;BME280;45222;52.458;20.914;2023-03-18T15:17:46;100844.94;;;11.67;34.65
59417;BME280;45222;52.458;20.914;2023-03-18T15:21:33;100846.52;;;11.52;34.77
59417;BME280;45222;52.458;20.914;2023-03-18T15:25:20;100844.46;;;11.38;35.19
59417;BME280;45222;52.458;20.914;2023-03-18T15:29:24;100843.74;;;11.26;34.95
59417;BME280;45222;52.458;20.914;2023-03-18T15:33:18;100843.95;;;11.13;35.28
59417;BME280;45222;52.458;20.914;2023-03-18T15:37:32;100847.10;;;11.01;35.69
59417;BME280;45222;52.458;20.914;2023-03-18T15:41:18;100848.90;;;10.88;36.05
59417;BME280;45222;52.458;20.914;2023-03-18T15:45:08;100853.73;;;10.79;36.31
59417;BME280;45222;52.458;20.914;2023-03-18T15:48:59;100851.76;;;10.71;36.84
59417;BME280;45222;52.458;20.914;2023-03-18T15:52:46;100859.90;;;10.63;37.18
59417;BME280;45222;52.458;20.914;2023-03-18T15:56:33;100859.89;;;10.55;37.09
59417;BME280;45222;52.458;20.914;2023-03-18T16:00:20;100862.88;;;10.47;37.15
59417;BME280;45222;52.458;20.914;2023-03-18T16:04:07;100862.63;;;10.39;37.13
59417;BME280;45222;52.458;20.914;2023-03-18T16:07:54;100863.13;;;10.30;37.27
59417;BME280;45222;52.458;20.914;2023-03-18T16:11:39;100865.58;;;10.23;37.66
59417;BME280;45222;52.458;20.914;2023-03-18T16:15:25;100870.00;;;10.14;37.86
59417;BME280;45222;52.458;20.914;2023-03-18T16:19:15;100873.43;;;10.03;38.29
59417;BME280;45222;52.458;20.914;2023-03-18T16:23:02;100877.91;;;9.93;38.39
59417;BME280;45222;52.458;20.914;2023-03-18T16:26:48;100881.11;;;9.83;38.89
59417;BME280;45222;52.458;20.914;2023-03-18T16:30:34;100879.81;;;9.75;38.85
59417;BME280;45222;52.458;20.914;2023-03-18T16:34:23;100880.36;;;9.64;39.54
59417;BME280;45222;52.458;20.914;2023-03-18T16:38:13;100882.54;;;9.53;39.63
59417;BME280;45222;52.458;20.914;2023-03-18T16:41:58;100884.08;;;9.45;39.71
59417;BME280;45222;52.458;20.914;2023-03-18T16:45:45;100889.99;;;9.38;40.02
59417;BME280;45222;52.458;20.914;2023-03-18T16:49:33;100894.85;;;9.31;40.33
59417;BME280;45222;52.458;20.914;2023-03-18T16:53:21;100895.85;;;9.23;40.54
59417;BME280;45222;52.458;20.914;2023-03-18T16:57:15;100892.40;;;9.15;40.78
59417;BME280;45222;52.458;20.914;2023-03-18T17:01:01;100893.10;;;9.10;40.88
59417;BME280;45222;52.458;20.914;2023-03-18T17:04:48;100895.19;;;9.05;40.80
59417;BME280;45222;52.458;20.914;2023-03-18T17:08:33;100900.35;;;9.00;41.02
59417;BME280;45222;52.458;20.914;2023-03-18T17:12:20;100905.84;;;8.95;41.35
59417;BME280;45222;52.458;20.914;2023-03-18T17:16:14;100908.90;;;8.88;41.46
59417;BME280;45222;52.458;20.914;2023-03-18T17:19:59;100913.89;;;8.82;41.90
59417;BME280;45222;52.458;20.914;2023-03-18T17:23:44;100916.33;;;8.78;42.15
59417;BME280;45222;52.458;20.914;2023-03-18T17:27:47;100915.08;;;8.73;42.05
59417;BME280;45222;52.458;20.914;2023-03-18T17:31:33;100915.77;;;8.68;42.53
59417;BME280;45222;52.458;20.914;2023-03-18T17:35:21;100916.48;;;8.62;42.61
59417;BME280;45222;52.458;20.914;2023-03-18T17:39:07;100917.97;;;8.53;42.90
59417;BME280;45222;52.458;20.914;2023-03-18T17:42:53;100918.23;;;8.44;43.38
59417;BME280;45222;52.458;20.914;2023-03-18T17:46:38;100916.21;;;8.35;43.55
59417;BME280;45222;52.458;20.914;2023-03-18T17:50:24;100913.98;;;8.26;43.69
59417;BME280;45222;52.458;20.914;2023-03-18T17:54:11;100912.23;;;8.20;43.71
59417;BME280;45222;52.458;20.914;2023-03-18T17:57:57;100909.79;;;8.13;44.25
59417;BME280;45222;52.458;20.914;2023-03-18T18:01:42;100908.73;;;8.06;44.68
59417;BME280;45222;52.458;20.914;2023-03-18T18:05:28;100908.10;;;7.98;44.66
59417;BME280;45222;52.458;20.914;2023-03-18T18:09:14;100909.23;;;7.89;44.54
59417;BME280;45222;52.458;20.914;2023-03-18T18:12:59;100908.66;;;7.84;44.48
59417;BME280;45222;52.458;20.914;2023-03-18T18:16:46;100906.10;;;7.81;44.39
59417;BME280;45222;52.458;20.914;2023-03-18T18:20:31;100905.09;;;7.78;44.62
59417;BME280;45222;52.458;20.914;2023-03-18T18:24:20;100905.38;;;7.74;44.93
59417;BME280;45222;52.458;20.914;2023-03-18T18:28:12;100901.28;;;7.69;45.02
59417;BME280;45222;52.458;20.914;2023-03-18T18:32:00;100895.39;;;7.64;45.01
59417;BME280;45222;52.458;20.914;2023-03-18T18:35:45;100893.22;;;7.60;45.36
59417;BME280;45222;52.458;20.914;2023-03-18T18:39:31;100893.35;;;7.55;45.44
59417;BME280;45222;52.458;20.914;2023-03-18T18:43:16;100894.88;;;7.51;45.44
59417;BME280;45222;52.458;20.914;2023-03-18T18:47:01;100894.27;;;7.48;45.89
59417;BME280;45222;52.458;20.914;2023-03-18T18:50:46;100894.91;;;7.43;46.01
59417;BME280;45222;52.458;20.914;2023-03-18T18:54:31;100901.63;;;7.37;46.26
59417;BME280;45222;52.458;20.914;2023-03-18T18:58:18;100902.29;;;7.32;46.29
59417;BME280;45222;52.458;20.914;2023-03-18T19:02:19;100900.27;;;7.28;46.51
59417;BME280;45222;52.458;20.914;2023-03-18T19:06:22;100901.05;;;7.25;46.82
59417;BME280;45222;52.458;20.914;2023-03-18T19:10:11;100900.77;;;7.23;47.25
59417;BME280;45222;52.458;20.914;2023-03-18T19:14:15;100902.20;;;7.21;47.31
59417;BME280;45222;52.458;20.914;2023-03-18T19:18:01;100901.56;;;7.19;47.41
59417;BME280;45222;52.458;20.914;2023-03-18T19:21:48;100897.89;;;7.17;47.70
59417;BME280;45222;52.458;20.914;2023-03-18T19:25:34;100898.27;;;7.17;47.78
59417;BME280;45222;52.458;20.914;2023-03-18T19:29:19;100899.70;;;7.16;48.04
59417;BME280;45222;52.458;20.914;2023-03-18T19:33:13;100902.95;;;7.14;48.04
59417;BME280;45222;52.458;20.914;2023-03-18T19:36:59;100906.20;;;7.11;48.11
59417;BME280;45222;52.458;20.914;2023-03-18T19:40:48;100905.89;;;7.09;48.31
59417;BME280;45222;52.458;20.914;2023-03-18T19:44:34;100907.76;;;7.05;48.31
59417;BME280;45222;52.458;20.914;2023-03-18T19:48:21;100907.09;;;7.04;48.40
59417;BME280;45222;52.458;20.914;2023-03-18T19:52:15;100906.22;;;7.03;48.34
59417;BME280;45222;52.458;20.914;2023-03-18T19:56:00;100903.64;;;7.01;48.43
59417;BME280;45222;52.458;20.914;2023-03-18T19:59:50;100908.48;;;6.97;48.56